createdAt,value
2018-12-19T00:00:29.400Z,7.83
2018-12-19T00:03:04.522Z,7.00
2018-12-19T00:05:39.542Z,7.55
2018-12-19T00:08:14.656Z,6.83
2018-12-19T00:10:49.798Z,7.50
2018-12-19T00:16:08.405Z,8.35
2018-12-19T00:18:42.838Z,7.72
2018-12-19T00:21:19.715Z,8.50
2018-12-19T00:23:54.567Z,7.53
2018-12-19T00:26:29.786Z,7.60
2018-12-19T00:29:05.479Z,7.60
2018-12-19T00:31:41.059Z,7.22
2018-12-19T00:34:19.926Z,6.37
2018-12-19T00:36:54.413Z,7.72
2018-12-19T00:39:28.841Z,7.03
2018-12-19T00:42:03.733Z,6.80
2018-12-19T00:44:38.759Z,6.80
2018-12-19T00:47:13.315Z,6.85
2018-12-19T00:49:49.385Z,6.05
2018-12-19T00:52:26.047Z,7.00
2018-12-19T00:55:00.800Z,8.15
2018-12-19T00:57:36.144Z,6.35
2018-12-19T01:00:11.866Z,6.65
2018-12-19T01:02:46.165Z,7.53
2018-12-19T01:05:20.733Z,7.00
2018-12-19T01:07:55.189Z,6.95
2018-12-19T01:10:30.701Z,7.58
2018-12-19T01:13:05.240Z,7.08
2018-12-19T01:15:39.546Z,6.97
2018-12-19T01:18:13.936Z,7.10
2018-12-19T01:20:49.467Z,6.85
2018-12-19T01:23:24.024Z,7.83
2018-12-19T01:25:59.171Z,6.85
2018-12-19T01:28:34.072Z,8.05
2018-12-19T01:31:08.769Z,7.25
2018-12-19T01:33:43.141Z,7.97
2018-12-19T01:36:18.025Z,8.23
2018-12-19T01:38:53.253Z,6.53
2018-12-19T01:41:27.946Z,7.85
2018-12-19T01:44:03.167Z,6.87
2018-12-19T01:46:38.081Z,7.80
2018-12-19T01:49:12.418Z,7.53
2018-12-19T01:51:46.985Z,8.35
2018-12-19T01:54:24.671Z,7.62
2018-12-19T01:56:59.058Z,7.97
2018-12-19T01:59:33.359Z,7.37
2018-12-19T02:02:07.983Z,7.65
2018-12-19T02:04:42.303Z,8.35
2018-12-19T02:07:16.623Z,8.00
2018-12-19T02:09:51.088Z,8.03
2018-12-19T02:12:26.584Z,7.62
2018-12-19T02:15:01.080Z,9.15
2018-12-19T02:17:35.642Z,8.03
2018-12-19T02:20:10.179Z,8.45
2018-12-19T02:22:44.820Z,7.30
2018-12-19T02:25:20.015Z,8.45
2018-12-19T02:27:54.563Z,8.40
2018-12-19T02:30:28.885Z,7.83
2018-12-19T02:33:03.822Z,7.58
2018-12-19T02:35:39.085Z,7.50
2018-12-19T02:38:13.970Z,6.83
2018-12-19T02:40:48.867Z,7.55
2018-12-19T02:43:23.625Z,7.87
2018-12-19T02:45:58.181Z,8.20
2018-12-19T02:48:39.407Z,8.63
2018-12-19T02:51:14.008Z,7.72
2018-12-19T02:53:48.353Z,7.60
2018-12-19T02:56:22.809Z,8.03
2018-12-19T02:58:58.235Z,7.25
2018-12-19T03:01:34.250Z,7.05
2018-12-19T03:04:08.943Z,7.40
2018-12-19T03:06:48.485Z,7.83
2018-12-19T03:09:22.929Z,7.00
2018-12-19T03:14:36.784Z,7.95
2018-12-19T03:17:11.019Z,8.58
2018-12-19T03:19:47.458Z,7.80
2018-12-19T03:22:21.961Z,7.67
2018-12-19T03:24:56.265Z,7.80
2018-12-19T03:27:30.750Z,6.78
2018-12-19T03:30:05.436Z,7.28
2018-12-19T03:32:40.170Z,8.15
2018-12-19T03:35:14.691Z,7.62
2018-12-19T03:37:49.508Z,7.30
2018-12-19T03:40:24.500Z,7.87
2018-12-19T03:42:59.893Z,6.87
2018-12-19T03:45:34.923Z,6.92
2018-12-19T03:48:13.644Z,6.72
2018-12-19T03:50:48.134Z,7.40
2018-12-19T03:53:22.685Z,6.97
2018-12-19T03:55:57.140Z,7.33
2018-12-19T03:58:31.702Z,7.78
2018-12-19T04:01:06.484Z,7.17
2018-12-19T04:03:41.813Z,7.00
2018-12-19T04:06:18.590Z,7.60
2018-12-19T04:08:53.319Z,7.50
2018-12-19T04:11:28.044Z,7.95
2018-12-19T04:14:03.782Z,7.65
2018-12-19T04:16:40.249Z,7.15
2018-12-19T04:19:16.699Z,7.20
2018-12-19T04:21:54.447Z,8.90
2018-12-19T04:24:42.277Z,7.80
2018-12-19T04:27:16.969Z,7.45
2018-12-19T04:29:55.223Z,7.65
2018-12-19T04:32:39.461Z,7.10
2018-12-19T04:35:25.797Z,8.50
2018-12-19T04:38:14.150Z,6.85
2018-12-19T04:40:48.606Z,8.58
2018-12-19T04:43:23.633Z,7.70
2018-12-19T04:45:58.445Z,8.90
2018-12-19T04:48:33.191Z,9.53
2018-12-19T04:51:07.661Z,9.58
2018-12-19T04:53:42.204Z,8.73
2018-12-19T04:56:16.754Z,9.63
2018-12-19T04:58:51.231Z,8.70
2018-12-19T05:01:25.992Z,10.08
2018-12-19T05:04:00.669Z,10.18
2018-12-19T05:06:35.061Z,10.38
2018-12-19T05:09:10.134Z,9.20
2018-12-19T05:14:43.494Z,9.10
2018-12-19T05:17:17.909Z,10.35
2018-12-19T05:19:52.597Z,9.30
2018-12-19T05:22:27.068Z,9.13
2018-12-19T05:25:01.392Z,9.50
2018-12-19T05:27:36.024Z,10.35
2018-12-19T05:30:10.661Z,10.55
2018-12-19T05:32:45.355Z,9.83
2018-12-19T05:35:19.995Z,11.08
2018-12-19T07:28:22.308Z,8.90
2018-12-19T07:31:05.842Z,11.12
2018-12-19T07:33:50.369Z,10.15
2018-12-19T07:36:38.527Z,10.88
2018-12-19T07:39:16.900Z,11.05
2018-12-19T07:42:20.380Z,13.20
2018-12-19T07:44:59.079Z,10.90
2018-12-19T07:47:38.494Z,12.68
2018-12-19T07:50:15.979Z,10.03
2018-12-19T07:52:52.620Z,10.95
2018-12-19T07:55:32.605Z,10.38
2018-12-19T07:58:11.536Z,10.80
2018-12-19T08:00:53.516Z,10.90
2018-12-19T08:03:33.735Z,10.30
2018-12-19T08:09:29.742Z,10.55
2018-12-19T08:12:09.542Z,10.32
2018-12-19T08:14:46.755Z,11.08
2018-12-19T08:17:25.058Z,11.28
2018-12-19T08:20:06.715Z,11.05
2018-12-19T08:22:45.882Z,10.80
2018-12-19T08:25:31.033Z,11.00
2018-12-19T08:28:09.954Z,11.35
2018-12-19T08:30:54.387Z,11.80
2018-12-19T08:33:33.088Z,11.30
2018-12-19T08:36:30.375Z,12.15
2018-12-19T08:39:07.974Z,11.73
2018-12-19T08:41:57.087Z,11.45
2018-12-19T08:53:25.750Z,10.68
2018-12-19T08:56:15.136Z,12.23
2018-12-19T08:58:51.947Z,10.68
2018-12-19T09:01:29.751Z,11.45
2018-12-19T09:04:16.103Z,12.00
2018-12-19T09:07:13.662Z,12.28
2018-12-19T09:09:49.581Z,10.63
2018-12-19T09:12:42.889Z,11.80
2018-12-19T09:15:28.096Z,12.18
2018-12-19T09:18:10.540Z,11.40
2018-12-19T09:20:54.006Z,12.65
2018-12-19T09:23:34.426Z,10.82
2018-12-19T09:26:12.803Z,13.10
2018-12-19T09:28:51.882Z,12.23
2018-12-19T09:31:29.009Z,11.65
2018-12-19T09:34:06.184Z,12.53
2018-12-19T09:36:46.672Z,11.40
2018-12-19T09:39:28.862Z,11.38
2018-12-19T09:42:14.531Z,11.10
2018-12-19T09:45:01.974Z,11.65
2018-12-19T09:47:44.437Z,12.65
2018-12-19T09:53:23.178Z,10.88
2018-12-19T09:59:01.389Z,12.20
2018-12-19T10:01:50.905Z,11.70
2018-12-19T10:04:31.001Z,12.05
2018-12-19T10:07:12.810Z,10.80
2018-12-19T10:09:50.451Z,13.58
2018-12-19T10:12:26.135Z,13.68
2018-12-19T10:15:06.494Z,11.85
2018-12-19T10:20:48.093Z,12.58
2018-12-19T10:23:25.022Z,11.68
2018-12-19T10:29:04.617Z,12.15
2018-12-19T10:35:01.270Z,11.73
2018-12-19T10:37:42.582Z,12.55
2018-12-19T10:40:18.497Z,11.68
2018-12-19T10:45:56.778Z,12.58
2018-12-19T10:48:34.610Z,12.35
2018-12-19T10:51:15.734Z,12.63
2018-12-19T10:53:53.471Z,11.75
2018-12-19T10:56:34.850Z,12.85
2018-12-19T10:59:10.975Z,13.38
2018-12-19T11:01:49.027Z,13.98
2018-12-19T11:04:25.799Z,13.53
2018-12-19T11:07:05.764Z,13.65
2018-12-19T11:09:44.111Z,13.15
2018-12-19T11:12:37.730Z,11.22
2018-12-19T11:15:15.309Z,13.13
2018-12-19T11:20:47.738Z,12.33
2018-12-19T11:23:25.442Z,13.03
2018-12-19T11:26:03.885Z,12.80
2018-12-19T11:28:41.539Z,14.45
2018-12-19T11:31:21.779Z,12.03
2018-12-19T11:34:00.681Z,12.47
2018-12-19T11:36:36.495Z,12.93
2018-12-19T11:39:12.700Z,12.30
2018-12-19T11:41:48.520Z,11.50
2018-12-19T11:44:24.753Z,12.33
2018-12-19T11:47:00.658Z,11.25
2018-12-19T11:49:40.817Z,12.15
2018-12-19T11:52:17.383Z,12.28
2018-12-19T11:55:31.088Z,12.60
2018-12-19T11:58:10.008Z,13.98
2018-12-19T12:03:49.977Z,11.65
2018-12-19T12:06:30.146Z,12.60
2018-12-19T12:09:10.610Z,13.00
2018-12-19T12:11:47.411Z,11.50
2018-12-19T12:14:27.659Z,11.93
2018-12-19T12:17:02.805Z,14.50
2018-12-19T12:22:23.189Z,12.78
2018-12-19T12:24:57.786Z,13.48
2018-12-19T12:27:40.118Z,13.03
2018-12-19T12:33:05.827Z,12.15
2018-12-19T12:35:42.505Z,12.50
2018-12-19T12:38:18.313Z,13.00
2018-12-19T12:41:05.750Z,12.50
2018-12-19T12:43:46.427Z,12.90
2018-12-19T12:46:28.908Z,13.20
2018-12-19T12:49:05.801Z,13.88
2018-12-19T12:51:44.111Z,12.75
2018-12-19T12:54:34.501Z,13.30
2018-12-19T12:57:17.732Z,13.55
2018-12-19T12:59:53.802Z,13.48
2018-12-19T13:02:32.376Z,14.35
2018-12-19T13:05:08.336Z,12.50
2018-12-19T13:07:49.031Z,12.88
2018-12-19T13:10:25.839Z,12.37
2018-12-19T13:13:05.829Z,12.28
2018-12-19T13:15:50.444Z,13.72
2018-12-19T13:21:19.693Z,13.00
2018-12-19T13:23:56.923Z,11.68
2018-12-19T13:26:34.239Z,13.15
2018-12-19T13:34:42.266Z,13.35
2018-12-19T13:37:20.972Z,12.82
2018-12-19T13:40:04.991Z,12.90
2018-12-19T13:42:51.020Z,13.43
2018-12-19T13:45:43.686Z,12.50
2018-12-19T13:48:19.340Z,13.58
2018-12-19T13:50:54.067Z,13.05
2018-12-19T13:53:35.692Z,12.00
2018-12-19T13:56:18.138Z,13.00
2018-12-19T14:01:54.804Z,14.65
2018-12-19T14:04:30.655Z,12.05
2018-12-19T14:07:06.627Z,13.00
2018-12-19T14:09:41.888Z,13.20
2018-12-19T14:12:16.247Z,12.45
2018-12-19T14:15:07.811Z,12.47
2018-12-19T14:17:43.014Z,12.80
2018-12-19T14:20:20.597Z,11.22
2018-12-19T14:22:55.518Z,12.93
2018-12-19T14:28:27.995Z,12.00
2018-12-19T14:31:05.619Z,10.80
2018-12-19T14:33:45.244Z,12.80
2018-12-19T14:36:21.168Z,12.00
2018-12-19T14:39:04.364Z,11.43
2018-12-19T14:41:42.760Z,11.78
2018-12-19T14:44:19.413Z,12.10
2018-12-19T14:46:56.121Z,12.25
2018-12-19T14:49:36.894Z,15.28
2018-12-19T14:52:14.313Z,13.15
2018-12-19T14:54:50.960Z,12.07
2018-12-19T15:00:20.773Z,12.73
2018-12-19T15:02:57.577Z,12.05
2018-12-19T15:05:47.739Z,12.98
2018-12-19T15:11:05.643Z,15.63
2018-12-19T15:13:50.129Z,14.50
2018-12-19T15:16:32.496Z,14.00
2018-12-19T15:19:16.019Z,15.13
2018-12-19T15:21:55.368Z,12.98
2018-12-19T15:24:32.840Z,16.50
2018-12-19T15:27:08.840Z,15.20
2018-12-19T15:29:45.840Z,11.57
2018-12-19T15:32:26.753Z,12.75
2018-12-19T15:35:04.311Z,13.25
2018-12-19T15:40:41.469Z,13.20
2018-12-19T15:43:17.402Z,12.98
2018-12-19T15:45:57.023Z,15.13
2018-12-19T15:48:32.214Z,13.68
2018-12-19T15:51:12.813Z,14.07
2018-12-19T15:53:48.923Z,13.68
2018-12-19T15:56:25.159Z,14.00
2018-12-19T16:02:13.868Z,15.95
2018-12-19T16:04:49.774Z,13.62
2018-12-19T16:10:39.882Z,14.15
2018-12-19T16:13:19.953Z,14.00
2018-12-19T16:16:15.355Z,14.43
2018-12-19T16:25:06.613Z,14.28
2018-12-19T16:27:49.882Z,13.75
2018-12-19T16:36:35.023Z,15.43
2018-12-19T16:39:32.781Z,13.58
2018-12-19T16:54:33.626Z,16.25
2018-12-19T16:57:26.913Z,14.45
2018-12-19T17:16:10.446Z,18.07
2018-12-19T17:18:52.429Z,18.62
2018-12-19T17:27:16.687Z,16.95
2018-12-19T17:29:59.913Z,17.37
2018-12-19T17:32:35.973Z,18.12
2018-12-19T17:40:41.223Z,16.05
2018-12-19T17:43:27.828Z,14.68
2018-12-19T17:46:10.160Z,16.10
2018-12-19T17:48:57.254Z,15.78
2018-12-19T17:51:44.759Z,19.20
2018-12-19T17:54:30.541Z,16.97
2018-12-19T17:57:17.306Z,17.35
2018-12-19T18:00:01.092Z,18.75
2018-12-19T18:05:39.049Z,18.23
2018-12-19T18:08:28.928Z,18.65
2018-12-19T18:14:27.177Z,17.23
2018-12-19T18:20:38.861Z,19.65
2018-12-19T18:23:26.935Z,19.52
2018-12-19T18:26:12.289Z,19.12
2018-12-19T18:28:54.687Z,21.45
2018-12-19T18:31:36.764Z,18.90
2018-12-19T18:34:14.920Z,20.88
2018-12-19T18:36:52.729Z,20.97
2018-12-19T18:39:30.142Z,20.32
2018-12-19T18:42:15.277Z,23.18
2018-12-19T18:45:04.272Z,22.65
2018-12-19T18:47:52.290Z,23.10
2018-12-19T18:53:13.622Z,23.20
2018-12-19T18:55:48.658Z,20.57
2018-12-19T18:58:24.541Z,24.15
2018-12-19T19:01:15.995Z,23.95
2018-12-19T19:04:00.127Z,25.48
2018-12-19T19:06:44.927Z,24.45
2018-12-19T19:09:31.834Z,23.70
2018-12-19T19:12:23.762Z,25.77
2018-12-19T19:15:14.249Z,24.98
2018-12-19T19:18:02.171Z,24.18
2018-12-19T19:20:49.427Z,36.13
2018-12-19T19:23:41.679Z,30.72
2018-12-19T19:32:07.560Z,22.58
2018-12-19T19:34:56.602Z,22.55
2018-12-19T19:37:47.941Z,23.00
2018-12-19T19:40:29.976Z,23.18
2018-12-19T19:49:23.877Z,22.07
2018-12-19T19:52:12.782Z,23.25
2018-12-19T20:04:12.223Z,25.48
2018-12-19T20:12:52.478Z,24.87
2018-12-19T20:18:36.222Z,23.32
2018-12-19T20:21:16.685Z,26.93
2018-12-19T20:24:00.860Z,25.50
2018-12-19T20:26:42.630Z,22.82
2018-12-19T20:29:36.170Z,24.35
2018-12-19T20:32:22.686Z,28.40
2018-12-19T20:35:05.783Z,25.25
2018-12-19T20:43:50.414Z,26.77
2018-12-19T20:49:34.663Z,27.65
2018-12-19T20:52:17.196Z,27.30
2018-12-19T20:55:06.641Z,27.77
2018-12-19T20:57:49.108Z,27.02
2018-12-19T21:06:49.906Z,25.02
2018-12-19T21:09:54.717Z,26.27
2018-12-19T21:12:47.577Z,27.75
2018-12-19T21:15:41.279Z,24.77
2018-12-19T21:24:20.492Z,25.30
2018-12-19T21:45:58.627Z,26.30
2018-12-19T21:48:53.538Z,27.22
2018-12-19T21:54:44.653Z,25.08
2018-12-19T21:57:37.439Z,23.87
2018-12-19T22:03:23.257Z,26.80
2018-12-19T22:06:01.827Z,22.20
2018-12-19T22:08:36.662Z,23.85
2018-12-19T22:11:13.139Z,24.65
2018-12-19T22:13:48.859Z,23.85
2018-12-19T22:16:28.723Z,22.40
2018-12-19T22:19:03.189Z,27.10
2018-12-19T22:21:38.604Z,25.72
2018-12-19T22:24:14.057Z,23.87
2018-12-19T22:26:49.630Z,25.70
2018-12-19T22:29:28.741Z,24.47
2018-12-19T22:32:11.892Z,23.15
2018-12-19T22:34:46.316Z,22.75
2018-12-19T22:37:23.974Z,23.80
2018-12-19T22:45:39.797Z,22.95
2018-12-19T22:48:29.186Z,22.82
2018-12-19T22:51:10.322Z,22.22
2018-12-19T22:53:47.457Z,21.07
2018-12-19T22:56:23.763Z,20.52
2018-12-19T22:59:02.459Z,22.93
2018-12-19T23:01:45.547Z,20.40
2018-12-19T23:04:27.810Z,21.52
2018-12-19T23:07:07.619Z,21.85
2018-12-19T23:09:52.853Z,20.52
2018-12-19T23:12:28.199Z,22.40
2018-12-19T23:15:03.501Z,22.45
2018-12-19T23:17:40.510Z,22.13
2018-12-19T23:20:16.515Z,22.95
2018-12-19T23:22:52.165Z,21.97
2018-12-19T23:25:33.872Z,23.02
2018-12-19T23:28:13.867Z,20.92
2018-12-19T23:30:51.385Z,22.67
2018-12-19T23:33:31.649Z,22.87
2018-12-19T23:36:11.386Z,22.65
2018-12-19T23:41:44.668Z,19.32
2018-12-19T23:44:30.340Z,21.33
2018-12-19T23:47:12.418Z,21.35
2018-12-19T23:50:04.211Z,25.85
2018-12-19T23:52:52.475Z,21.90
2018-12-19T23:55:39.625Z,22.20
